createdAt,value
2023-12-07T00:00:56.075Z,10.02
2023-12-07T00:06:00.005Z,9.85
2023-12-07T00:08:27.366Z,11.05
2023-12-07T00:10:54.554Z,10.02
2023-12-07T00:13:22.489Z,11.68
2023-12-07T00:15:50.978Z,11.20
2023-12-07T00:18:18.632Z,11.38
2023-12-07T00:20:45.921Z,10.85
2023-12-07T00:23:13.444Z,10.50
2023-12-07T00:25:40.999Z,11.00
2023-12-07T00:28:08.910Z,12.00
2023-12-07T00:30:36.964Z,10.48
2023-12-07T00:33:05.948Z,12.07
2023-12-07T00:35:33.330Z,11.80
2023-12-07T00:38:01.247Z,11.30
2023-12-07T00:40:28.326Z,11.98
2023-12-07T00:42:55.716Z,11.25
2023-12-07T00:45:22.910Z,11.93
2023-12-07T00:47:50.203Z,13.05
2023-12-07T00:50:18.844Z,13.02
2023-12-07T00:52:46.460Z,12.20
2023-12-07T00:55:13.842Z,13.25
2023-12-07T00:57:41.374Z,13.82
2023-12-07T01:00:10.970Z,13.60
2023-12-07T01:02:38.500Z,13.50
2023-12-07T01:05:06.979Z,13.25
2023-12-07T01:07:35.641Z,13.73
2023-12-07T01:10:02.832Z,12.95
2023-12-07T01:12:30.298Z,13.57
2023-12-07T01:14:59.685Z,13.10
2023-12-07T01:17:29.516Z,12.85
2023-12-07T01:19:56.480Z,12.90
2023-12-07T01:22:24.124Z,12.38
2023-12-07T01:24:54.127Z,12.25
2023-12-07T01:27:21.583Z,12.27
2023-12-07T01:29:49.084Z,13.60
2023-12-07T01:32:22.094Z,12.85
2023-12-07T01:34:54.709Z,12.85
2023-12-07T01:37:26.174Z,13.52
2023-12-07T01:39:56.687Z,12.52
2023-12-07T01:42:24.735Z,14.00
2023-12-07T01:45:00.346Z,12.68
2023-12-07T01:47:28.110Z,12.60
2023-12-07T01:50:05.947Z,12.60
2023-12-07T01:52:39.627Z,13.30
2023-12-07T01:55:13.302Z,13.15
2023-12-07T01:57:44.118Z,12.32
2023-12-07T02:00:15.459Z,12.68
2023-12-07T02:02:44.675Z,13.55
2023-12-07T02:05:13.667Z,14.60
2023-12-07T02:07:42.291Z,13.82
2023-12-07T02:10:11.791Z,12.80
2023-12-07T02:12:39.375Z,13.82
2023-12-07T02:15:08.414Z,14.43
2023-12-07T02:20:13.176Z,13.15
2023-12-07T02:22:44.563Z,13.60
2023-12-07T02:25:15.604Z,14.95
2023-12-07T02:27:47.181Z,14.23
2023-12-07T02:30:14.867Z,14.68
2023-12-07T02:32:44.871Z,13.80
2023-12-07T02:35:13.974Z,14.35
2023-12-07T02:37:44.878Z,13.93
2023-12-07T02:40:16.063Z,13.80
2023-12-07T02:42:45.633Z,14.18
2023-12-07T02:45:15.763Z,13.82
2023-12-07T02:47:44.781Z,13.60
2023-12-07T02:50:13.267Z,13.90
2023-12-07T02:52:41.375Z,13.52
2023-12-07T02:55:10.461Z,14.10
2023-12-07T03:00:08.597Z,14.27
2023-12-07T03:02:42.300Z,15.13
2023-12-07T03:05:09.753Z,14.82
2023-12-07T03:07:40.178Z,13.35
2023-12-07T03:10:11.014Z,12.43
2023-12-07T03:12:41.612Z,11.52
2023-12-07T03:15:14.685Z,12.13
2023-12-07T03:17:42.183Z,13.75
2023-12-07T03:20:11.872Z,13.18
2023-12-07T03:22:39.506Z,12.98
2023-12-07T03:25:07.032Z,11.75
2023-12-07T03:27:34.488Z,13.02
2023-12-07T03:30:01.687Z,14.25
2023-12-07T03:32:30.519Z,12.98
2023-12-07T03:34:57.755Z,12.25
2023-12-07T03:37:25.275Z,11.63
2023-12-07T03:39:52.463Z,12.23
2023-12-07T03:42:49.442Z,12.82
2023-12-07T03:45:08.250Z,12.00
2023-12-07T03:47:37.066Z,11.75
2023-12-07T03:50:04.710Z,12.65
2023-12-07T03:52:32.315Z,11.48
2023-12-07T03:54:59.721Z,10.85
2023-12-07T03:57:27.054Z,11.75
2023-12-07T03:59:54.988Z,11.82
2023-12-07T04:02:22.796Z,9.80
2023-12-07T04:04:51.311Z,10.32
2023-12-07T04:07:18.697Z,10.25
2023-12-07T04:09:46.253Z,10.25
2023-12-07T04:12:13.712Z,11.40
2023-12-07T04:14:40.839Z,11.05
2023-12-07T04:17:08.466Z,12.25
2023-12-07T04:19:35.802Z,10.35
2023-12-07T04:22:05.157Z,11.23
2023-12-07T04:24:32.258Z,10.90
2023-12-07T04:26:59.611Z,10.55
2023-12-07T04:29:26.798Z,10.68
2023-12-07T04:31:54.392Z,10.63
2023-12-07T04:34:21.653Z,11.00
2023-12-07T04:36:49.005Z,11.15
2023-12-07T04:39:17.503Z,10.88
2023-12-07T04:41:44.885Z,11.80
2023-12-07T04:44:14.334Z,11.85
2023-12-07T04:46:44.752Z,12.18
2023-12-07T04:49:14.665Z,12.45
2023-12-07T04:51:43.365Z,10.50
2023-12-07T04:54:20.040Z,11.57
2023-12-07T04:56:51.744Z,10.18
2023-12-07T04:59:20.121Z,11.25
2023-12-07T05:01:48.391Z,10.80
2023-12-07T05:04:15.826Z,12.02
2023-12-07T05:06:43.510Z,10.15
2023-12-07T05:09:10.737Z,10.73
2023-12-07T05:11:38.939Z,10.43
2023-12-07T05:14:08.510Z,11.07
2023-12-07T05:16:36.082Z,10.80
2023-12-07T05:19:03.908Z,10.82
2023-12-07T05:21:31.424Z,11.82
2023-12-07T05:23:58.573Z,12.35
2023-12-07T05:26:26.040Z,11.73
2023-12-07T05:28:53.198Z,12.35
2023-12-07T05:31:22.027Z,11.82
2023-12-07T05:33:49.498Z,13.15
2023-12-07T05:36:16.957Z,12.07
2023-12-07T05:38:44.143Z,11.48
2023-12-07T05:41:14.017Z,12.68
2023-12-07T05:43:42.962Z,11.65
2023-12-07T05:48:39.255Z,8.80
2023-12-07T05:51:07.661Z,10.55
2023-12-07T05:53:34.708Z,10.25
2023-12-07T05:56:04.771Z,10.00
2023-12-07T05:58:33.582Z,9.82
2023-12-07T06:01:02.605Z,9.70
2023-12-07T06:03:30.002Z,9.88
2023-12-07T06:05:58.963Z,9.45
2023-12-07T06:08:26.064Z,9.35
2023-12-07T06:10:53.489Z,9.60
2023-12-07T06:13:20.547Z,8.93
2023-12-07T06:15:47.872Z,9.82
2023-12-07T06:18:14.942Z,9.55
2023-12-07T06:20:43.346Z,9.35
2023-12-07T06:23:13.879Z,9.68
2023-12-07T06:25:41.397Z,10.70
2023-12-07T06:28:08.656Z,10.07
2023-12-07T06:30:36.167Z,11.23
2023-12-07T06:33:05.515Z,10.00
2023-12-07T06:35:32.873Z,10.13
2023-12-07T06:37:59.879Z,11.13
2023-12-07T06:40:28.810Z,10.80
2023-12-07T06:42:56.000Z,10.40
2023-12-07T06:45:23.356Z,10.82
2023-12-07T06:47:50.961Z,11.05
2023-12-07T06:50:18.387Z,10.77
2023-12-07T06:55:16.553Z,10.35
2023-12-07T06:57:50.705Z,10.40
2023-12-07T07:00:19.619Z,11.70
2023-12-07T07:02:47.573Z,9.82
2023-12-07T07:05:15.658Z,10.38
2023-12-07T07:07:45.833Z,10.70
2023-12-07T07:10:15.682Z,10.15
2023-12-07T07:12:42.725Z,10.43
2023-12-07T07:15:14.195Z,10.13
2023-12-07T07:17:42.172Z,10.98
2023-12-07T07:20:14.936Z,10.45
2023-12-07T07:22:42.464Z,9.43
2023-12-07T07:25:10.797Z,9.77
2023-12-07T07:27:41.640Z,10.32
2023-12-07T07:30:09.842Z,9.37
2023-12-07T07:32:40.621Z,10.75
2023-12-07T07:35:09.437Z,9.48
2023-12-07T07:37:36.652Z,9.27
2023-12-07T07:40:08.319Z,9.45
2023-12-07T07:42:35.586Z,9.77
2023-12-07T07:45:02.869Z,9.48
2023-12-07T07:47:30.126Z,9.13
2023-12-07T07:49:59.881Z,9.55
2023-12-07T07:54:54.284Z,9.35
2023-12-07T07:57:21.525Z,9.48
2023-12-07T07:59:48.861Z,9.38
2023-12-07T08:02:15.955Z,9.95
2023-12-07T08:04:43.391Z,11.10
2023-12-07T08:07:12.532Z,10.65
2023-12-07T08:09:40.894Z,10.80
2023-12-07T08:12:09.887Z,10.00
2023-12-07T08:14:37.450Z,11.55
2023-12-07T08:17:04.604Z,11.88
2023-12-07T08:19:32.025Z,10.55
2023-12-07T08:21:59.173Z,10.50
2023-12-07T08:24:27.876Z,9.80
2023-12-07T08:26:55.181Z,11.43
2023-12-07T08:29:22.706Z,10.70
2023-12-07T08:31:49.901Z,10.20
2023-12-07T08:34:18.765Z,9.93
2023-12-07T08:36:46.826Z,9.43
2023-12-07T08:39:14.212Z,8.57
2023-12-07T08:41:42.728Z,9.40
2023-12-07T08:44:10.138Z,9.13
2023-12-07T08:46:37.206Z,10.18
2023-12-07T08:49:04.871Z,9.77
2023-12-07T08:51:32.300Z,10.00
2023-12-07T08:53:59.713Z,10.38
2023-12-07T08:56:26.984Z,10.27
2023-12-07T08:58:58.072Z,10.23
2023-12-07T09:01:32.230Z,9.65
2023-12-07T09:04:01.093Z,9.75
2023-12-07T09:06:28.431Z,11.63
2023-12-07T09:08:56.413Z,10.23
2023-12-07T09:11:24.316Z,10.18
2023-12-07T09:13:51.463Z,9.55
2023-12-07T09:16:20.256Z,9.00
2023-12-07T09:18:47.567Z,10.52
2023-12-07T09:21:15.514Z,10.88
2023-12-07T09:23:43.207Z,10.97
2023-12-07T09:26:10.496Z,10.57
2023-12-07T09:28:37.836Z,10.27
2023-12-07T09:31:05.396Z,11.75
2023-12-07T09:33:34.128Z,11.25
2023-12-07T09:36:01.615Z,10.32
2023-12-07T09:38:28.658Z,10.07
2023-12-07T09:40:56.470Z,10.70
2023-12-07T09:43:24.008Z,11.27
2023-12-07T09:45:55.354Z,10.98
2023-12-07T09:48:24.328Z,9.77
2023-12-07T09:50:56.109Z,9.75
2023-12-07T09:53:23.591Z,10.73
2023-12-07T09:55:51.130Z,12.10
2023-12-07T09:58:25.869Z,10.93
2023-12-07T10:00:59.540Z,11.52
2023-12-07T10:03:26.759Z,11.95
2023-12-07T10:06:01.113Z,11.85
2023-12-07T10:08:29.734Z,11.07
2023-12-07T10:11:06.083Z,9.85
2023-12-07T10:13:34.117Z,10.50
2023-12-07T10:16:12.355Z,10.40
2023-12-07T10:18:43.622Z,11.88
2023-12-07T10:21:14.081Z,11.23
2023-12-07T10:23:45.065Z,10.40
2023-12-07T10:26:13.989Z,10.52
2023-12-07T10:28:41.247Z,10.50
2023-12-07T10:31:11.065Z,10.35
2023-12-07T10:33:38.369Z,10.60
2023-12-07T10:36:07.815Z,12.35
2023-12-07T10:41:08.872Z,10.23
2023-12-07T10:43:38.322Z,11.25
2023-12-07T10:46:18.504Z,11.82
2023-12-07T10:48:48.635Z,12.13
2023-12-07T10:51:27.535Z,13.02
2023-12-07T10:54:01.431Z,13.07
2023-12-07T10:56:33.576Z,45.47
2023-12-07T10:59:00.753Z,35.80
2023-12-07T11:01:28.323Z,29.38
2023-12-07T11:03:57.125Z,15.38
2023-12-07T11:06:24.802Z,13.27
2023-12-07T11:08:56.225Z,12.85
2023-12-07T11:11:31.066Z,13.02
2023-12-07T11:14:00.957Z,11.75
2023-12-07T11:16:32.315Z,11.00
2023-12-07T11:18:59.816Z,11.73
2023-12-07T11:21:28.178Z,11.18
2023-12-07T11:23:55.879Z,12.20
2023-12-07T11:26:25.953Z,10.93
2023-12-07T11:28:53.440Z,12.35
2023-12-07T11:31:21.285Z,11.65
2023-12-07T11:33:49.078Z,11.10
2023-12-07T11:36:16.582Z,10.43
2023-12-07T11:39:21.147Z,10.77
2023-12-07T11:41:57.327Z,10.63
2023-12-07T11:44:33.935Z,11.50
2023-12-07T11:47:01.465Z,11.75
2023-12-07T11:49:35.885Z,8.80
2023-12-07T11:52:15.745Z,10.73
2023-12-07T11:54:46.670Z,10.13
2023-12-07T11:57:16.790Z,10.43
2023-12-07T11:59:45.739Z,9.60
2023-12-07T12:02:14.040Z,11.60
2023-12-07T12:04:41.998Z,9.73
2023-12-07T12:07:09.898Z,11.40
2023-12-07T12:09:37.072Z,9.50
2023-12-07T12:12:05.121Z,9.77
2023-12-07T12:14:33.997Z,9.95
2023-12-07T12:19:34.137Z,8.43
2023-12-07T12:22:05.197Z,8.80
2023-12-07T12:24:34.706Z,8.30
2023-12-07T12:27:03.541Z,9.38
2023-12-07T12:29:34.233Z,9.90
2023-12-07T12:32:06.851Z,9.13
2023-12-07T12:34:35.491Z,9.15
2023-12-07T12:39:33.616Z,9.43
2023-12-07T12:42:16.607Z,9.00
2023-12-07T12:44:44.083Z,15.52
2023-12-07T12:47:13.393Z,12.73
2023-12-07T12:49:42.447Z,18.48
2023-12-07T12:52:12.080Z,10.50
2023-12-07T12:54:39.784Z,8.52
2023-12-07T12:57:07.840Z,9.02
2023-12-07T12:59:35.719Z,9.07
2023-12-07T13:02:05.583Z,8.38
2023-12-07T13:07:05.866Z,8.07
2023-12-07T13:09:33.456Z,6.60
2023-12-07T13:12:04.483Z,6.90
2023-12-07T13:14:37.034Z,6.75
2023-12-07T13:17:05.487Z,7.22
2023-12-07T13:19:34.676Z,7.38
2023-12-07T13:22:02.192Z,5.85
2023-12-07T13:24:29.515Z,6.28
2023-12-07T13:26:57.943Z,7.20
2023-12-07T13:29:32.897Z,5.18
2023-12-07T13:32:03.844Z,4.77
2023-12-07T13:34:31.424Z,4.75
2023-12-07T13:37:00.050Z,4.30
2023-12-07T13:39:32.674Z,4.15
2023-12-07T13:42:02.474Z,4.60
2023-12-07T13:44:34.118Z,4.45
2023-12-07T13:47:01.452Z,4.57
2023-12-07T13:49:33.109Z,4.90
2023-12-07T13:52:06.957Z,4.53
2023-12-07T13:57:08.664Z,5.10
2023-12-07T13:59:39.428Z,4.45
2023-12-07T14:02:06.973Z,4.53
2023-12-07T14:04:34.692Z,5.18
2023-12-07T14:07:11.310Z,4.63
2023-12-07T14:09:50.442Z,4.18
2023-12-07T14:12:24.499Z,4.18
2023-12-07T14:14:51.981Z,4.35
2023-12-07T14:17:20.786Z,4.50
2023-12-07T14:19:51.754Z,4.10
2023-12-07T14:22:22.133Z,7.10
2023-12-07T14:24:49.582Z,6.38
2023-12-07T14:27:16.937Z,5.10
2023-12-07T14:29:44.546Z,5.40
2023-12-07T14:32:12.490Z,4.80
2023-12-07T14:34:39.955Z,4.77
2023-12-07T14:37:08.320Z,4.95
2023-12-07T14:39:38.150Z,4.32
2023-12-07T14:42:11.150Z,4.53
2023-12-07T14:44:39.190Z,4.80
2023-12-07T14:47:11.839Z,22.05
2023-12-07T14:49:44.390Z,21.05
2023-12-07T14:52:14.091Z,16.88
2023-12-07T14:54:45.544Z,4.47
2023-12-07T14:57:13.189Z,4.13
2023-12-07T14:59:41.108Z,4.35
2023-12-07T15:02:08.372Z,4.28
2023-12-07T15:04:36.221Z,4.07
2023-12-07T15:07:04.879Z,4.25
2023-12-07T15:12:01.058Z,3.95
2023-12-07T15:14:36.565Z,3.67
2023-12-07T15:17:06.702Z,3.78
2023-12-07T15:19:35.176Z,3.95
2023-12-07T15:22:03.025Z,4.10
2023-12-07T15:24:35.226Z,4.47
2023-12-07T15:27:05.937Z,5.60
2023-12-07T15:29:36.003Z,4.57
2023-12-07T15:32:04.463Z,4.78
2023-12-07T15:34:38.448Z,4.80
2023-12-07T15:37:08.629Z,4.60
2023-12-07T15:39:36.144Z,4.13
2023-12-07T15:42:04.106Z,4.45
2023-12-07T15:44:33.335Z,4.60
2023-12-07T15:47:00.977Z,4.88
2023-12-07T15:49:28.769Z,4.32
2023-12-07T15:51:58.513Z,5.18
2023-12-07T15:54:37.662Z,5.57
2023-12-07T15:59:38.072Z,4.88
2023-12-07T16:04:35.416Z,5.03
2023-12-07T16:07:07.409Z,5.72
2023-12-07T16:09:37.705Z,6.22
2023-12-07T16:12:09.416Z,6.57
2023-12-07T16:14:39.663Z,6.00
2023-12-07T16:17:09.051Z,5.80
2023-12-07T16:19:36.816Z,6.40
2023-12-07T16:22:04.174Z,6.22
2023-12-07T16:24:31.896Z,6.93
2023-12-07T16:27:02.539Z,5.95
2023-12-07T16:29:31.706Z,6.47
2023-12-07T16:32:00.308Z,6.85
2023-12-07T16:34:27.733Z,6.60
2023-12-07T16:36:54.848Z,6.20
2023-12-07T16:39:22.272Z,6.63
2023-12-07T16:41:55.323Z,6.28
2023-12-07T16:44:28.760Z,7.13
2023-12-07T16:46:57.106Z,6.78
2023-12-07T16:49:27.963Z,7.88
2023-12-07T16:51:55.483Z,8.40
2023-12-07T16:54:22.820Z,8.80
2023-12-07T16:56:50.410Z,8.07
2023-12-07T16:59:20.990Z,8.73
2023-12-07T17:01:48.373Z,7.80
2023-12-07T17:04:17.448Z,7.65
2023-12-07T17:06:56.156Z,7.07
2023-12-07T17:09:29.656Z,7.10
2023-12-07T17:12:00.323Z,6.97
2023-12-07T17:14:29.390Z,7.85
2023-12-07T17:16:59.195Z,8.23
2023-12-07T17:19:45.806Z,8.23
2023-12-07T17:22:19.811Z,7.57
2023-12-07T17:27:14.052Z,5.97
2023-12-07T17:29:43.132Z,7.35
2023-12-07T17:32:10.383Z,7.57
2023-12-07T17:34:42.424Z,7.22
2023-12-07T17:37:12.824Z,7.40
2023-12-07T17:39:44.836Z,8.15
2023-12-07T17:42:16.846Z,7.30
2023-12-07T17:44:45.815Z,7.10
2023-12-07T17:47:12.853Z,7.43
2023-12-07T17:49:40.403Z,7.32
2023-12-07T17:52:10.099Z,7.60
2023-12-07T17:54:39.220Z,6.93
2023-12-07T17:57:08.196Z,7.75
2023-12-07T17:59:38.819Z,7.53
2023-12-07T18:02:06.636Z,7.13
2023-12-07T18:04:34.758Z,8.52
2023-12-07T18:07:02.063Z,8.77
2023-12-07T18:09:33.335Z,11.90
2023-12-07T18:12:08.060Z,12.80
2023-12-07T18:14:40.265Z,18.27
2023-12-07T18:17:12.265Z,28.35
2023-12-07T18:19:41.924Z,9.50
2023-12-07T18:22:09.254Z,9.05
2023-12-07T18:24:41.292Z,9.18
2023-12-07T18:27:08.539Z,8.90
2023-12-07T18:29:38.986Z,7.82
2023-12-07T18:32:07.111Z,9.55
2023-12-07T18:34:34.966Z,8.52
2023-12-07T18:37:03.987Z,9.45
2023-12-07T18:39:32.742Z,9.30
2023-12-07T18:41:59.881Z,9.25
2023-12-07T18:44:29.913Z,9.80
2023-12-07T18:47:11.278Z,8.18
2023-12-07T18:49:40.789Z,9.00
2023-12-07T18:52:08.256Z,9.55
2023-12-07T18:54:38.997Z,9.40
2023-12-07T18:57:06.344Z,9.88
2023-12-07T18:59:40.301Z,9.32
2023-12-07T19:02:12.566Z,9.55
2023-12-07T19:04:42.842Z,9.30
2023-12-07T19:07:13.915Z,9.90
2023-12-07T19:09:44.271Z,9.80
2023-12-07T19:12:11.738Z,9.80
2023-12-07T19:14:39.165Z,9.55
2023-12-07T19:17:17.871Z,9.48
2023-12-07T19:19:49.082Z,10.35
2023-12-07T19:22:16.850Z,10.10
2023-12-07T19:24:45.965Z,10.00
2023-12-07T19:27:16.334Z,9.35
2023-12-07T19:29:44.014Z,9.65
2023-12-07T19:32:15.103Z,8.40
2023-12-07T19:34:42.488Z,9.07
2023-12-07T19:37:11.385Z,9.02
2023-12-07T19:42:06.713Z,10.52
2023-12-07T19:44:34.392Z,11.75
2023-12-07T19:47:01.420Z,10.23
2023-12-07T19:49:28.881Z,9.57
2023-12-07T19:51:56.457Z,9.07
2023-12-07T19:54:33.197Z,10.77
2023-12-07T19:57:02.939Z,10.65
2023-12-07T19:59:30.722Z,10.23
2023-12-07T20:01:57.884Z,10.13
2023-12-07T20:04:27.140Z,9.82
2023-12-07T20:06:55.489Z,13.20
2023-12-07T20:09:25.429Z,10.90
2023-12-07T20:11:55.995Z,10.55
2023-12-07T20:14:23.293Z,10.73
2023-12-07T20:16:53.237Z,10.77
2023-12-07T20:19:26.248Z,11.27
2023-12-07T20:21:55.295Z,10.98
2023-12-07T20:24:22.803Z,10.65
2023-12-07T20:26:49.870Z,10.15
2023-12-07T20:29:20.487Z,10.82
2023-12-07T20:31:49.517Z,9.60
2023-12-07T20:34:16.977Z,10.65
2023-12-07T20:36:44.410Z,10.35
2023-12-07T20:39:11.901Z,11.27
2023-12-07T20:41:39.081Z,10.07
2023-12-07T20:44:08.384Z,10.05
2023-12-07T20:46:38.606Z,10.48
2023-12-07T20:49:09.757Z,10.90
2023-12-07T20:51:37.295Z,10.85
2023-12-07T20:54:04.882Z,12.18
2023-12-07T20:56:40.474Z,10.52
2023-12-07T20:59:10.770Z,10.27
2023-12-07T21:01:39.651Z,10.38
2023-12-07T21:04:09.502Z,9.80
2023-12-07T21:06:36.845Z,9.40
2023-12-07T21:09:04.733Z,10.27
2023-12-07T21:11:32.255Z,9.10
2023-12-07T21:13:59.856Z,9.35
2023-12-07T21:16:29.653Z,10.48
2023-12-07T21:18:58.501Z,9.40
2023-12-07T21:21:25.776Z,10.65
2023-12-07T21:23:53.274Z,9.68
2023-12-07T21:26:20.556Z,9.68
2023-12-07T21:28:48.208Z,9.68
2023-12-07T21:31:17.152Z,9.75
2023-12-07T21:33:44.922Z,10.60
2023-12-07T21:36:13.630Z,11.00
2023-12-07T21:38:41.208Z,11.07
2023-12-07T21:41:08.538Z,10.73
2023-12-07T21:43:36.235Z,9.73
2023-12-07T21:46:03.943Z,10.15
2023-12-07T21:48:31.766Z,10.43
2023-12-07T21:50:59.282Z,10.10
2023-12-07T21:53:29.586Z,9.35
2023-12-07T21:56:00.919Z,10.00
2023-12-07T21:58:33.593Z,9.38
2023-12-07T22:01:18.450Z,9.48
2023-12-07T22:03:48.193Z,9.57
2023-12-07T22:06:24.125Z,9.10
2023-12-07T22:08:55.274Z,9.93
2023-12-07T22:11:22.941Z,10.02
2023-12-07T22:13:50.447Z,9.10
2023-12-07T22:16:20.040Z,10.13
2023-12-07T22:18:47.955Z,10.00
2023-12-07T22:21:15.753Z,9.75
2023-12-07T22:23:45.945Z,10.00
2023-12-07T22:26:23.296Z,10.60
2023-12-07T22:28:50.890Z,10.10
2023-12-07T22:31:17.972Z,10.25
2023-12-07T22:33:59.929Z,10.57
2023-12-07T22:36:31.729Z,10.52
2023-12-07T22:39:04.064Z,10.02
2023-12-07T22:41:34.619Z,10.73
2023-12-07T22:44:05.416Z,10.18
2023-12-07T22:46:32.522Z,10.77
2023-12-07T22:49:00.229Z,9.82
2023-12-07T22:51:27.411Z,10.27
2023-12-07T22:53:54.889Z,10.93
2023-12-07T22:56:22.183Z,10.00
2023-12-07T22:58:51.042Z,10.95
2023-12-07T23:01:18.260Z,10.77
2023-12-07T23:03:45.708Z,9.82
2023-12-07T23:06:13.696Z,10.13
2023-12-07T23:08:41.290Z,10.63
2023-12-07T23:11:08.514Z,10.73
2023-12-07T23:13:36.249Z,9.88
2023-12-07T23:16:05.089Z,10.20
2023-12-07T23:20:59.860Z,9.70
2023-12-07T23:23:31.480Z,10.65
2023-12-07T23:25:58.663Z,10.52
2023-12-07T23:28:26.172Z,9.88
2023-12-07T23:30:53.158Z,10.68
2023-12-07T23:33:22.000Z,10.35
2023-12-07T23:35:49.208Z,10.73
2023-12-07T23:38:16.761Z,10.98
2023-12-07T23:40:44.002Z,10.48
2023-12-07T23:43:11.692Z,10.68
2023-12-07T23:45:38.798Z,10.90
2023-12-07T23:48:06.831Z,11.55
2023-12-07T23:50:37.516Z,11.65
2023-12-07T23:53:05.424Z,10.88
2023-12-07T23:55:32.755Z,10.82
2023-12-07T23:58:00.237Z,10.30
